SBI2102 UBBB-UUDD
Flight info
| Callsign | SBI2102 |
|---|---|
| Flight time | N/A |
| Altitude | 36000 |
| Route | EKRAM DCT MKL DCT UP DCT WGD DCT RINGU DCT EPOGI DCT NEGLE DCT OLOPI OLOPI3L |
| Aircraft | A321/M-SDE3FGHIRWY/LB1 |
Departure
| Time | 2026-05-04 17:45 |
|---|---|
| Airport | Heydar Aliyev International Airport (UBBB) |
Arrival
| Time | N/A |
|---|---|
| Airport | Domodedovo International Airport (UUDD) |
| Time | Latitude | Longitude | Altitude | Speed | Heading |
|---|---|---|---|---|---|
| 2026-05-04 17:17 | 40.46174 | 50.04843 | 11 ft | 0 kts | 57° |
| 2026-05-04 17:31 | 40.46174 | 50.04842 | 9 ft | 0 kts | 57° |
| 2026-05-04 17:36 | 40.46166 | 50.04826 | 9 ft | 4 kts | 60° |
| 2026-05-04 17:37 | 40.46155 | 50.04796 | 9 ft | 4 kts | 72° |
| 2026-05-04 17:37 | 40.46150 | 50.04764 | 11 ft | 4 kts | 95° |
| 2026-05-04 17:37 | 40.46157 | 50.04738 | 11 ft | 2 kts | 147° |
| 2026-05-04 17:37 | 40.46163 | 50.04733 | 11 ft | 0 kts | 148° |
| 2026-05-04 17:40 | 40.46160 | 50.04736 | 11 ft | 3 kts | 148° |
| 2026-05-04 17:40 | 40.46116 | 50.04773 | 9 ft | 9 kts | 147° |
| 2026-05-04 17:40 | 40.46068 | 50.04815 | 9 ft | 8 kts | 146° |
| 2026-05-04 17:41 | 40.46021 | 50.04825 | 9 ft | 6 kts | 192° |
| 2026-05-04 17:41 | 40.45983 | 50.04809 | 9 ft | 5 kts | 198° |
| 2026-05-04 17:41 | 40.45952 | 50.04794 | 9 ft | 6 kts | 201° |
| 2026-05-04 17:41 | 40.45882 | 50.04756 | 9 ft | 13 kts | 202° |
| 2026-05-04 17:42 | 40.45805 | 50.04715 | 9 ft | 11 kts | 202° |
| 2026-05-04 17:42 | 40.45742 | 50.04665 | 9 ft | 10 kts | 227° |
| 2026-05-04 17:42 | 40.45711 | 50.04585 | 9 ft | 10 kts | 249° |
| 2026-05-04 17:42 | 40.45689 | 50.04505 | 9 ft | 9 kts | 250° |
| 2026-05-04 17:43 | 40.45668 | 50.04428 | 11 ft | 11 kts | 250° |
| 2026-05-04 17:43 | 40.45640 | 50.04316 | 11 ft | 13 kts | 254° |
| 2026-05-04 17:43 | 40.45623 | 50.04199 | 9 ft | 13 kts | 265° |
| 2026-05-04 17:43 | 40.45656 | 50.04118 | 9 ft | 10 kts | 342° |
| 2026-05-04 17:44 | 40.45663 | 50.04116 | 9 ft | 0 kts | 344° |
| 2026-05-04 17:44 | 40.45674 | 50.04112 | 10 ft | 9 kts | 344° |
| 2026-05-04 17:44 | 40.45937 | 50.04023 | 11 ft | 72 kts | 346° |
| 2026-05-04 17:44 | 40.46617 | 50.03810 | 8 ft | 126 kts | 346° |
| 2026-05-04 17:45 | 40.47607 | 50.03500 | 44 ft | 162 kts | 347° |
| 2026-05-04 17:45 | 40.48658 | 50.03208 | 800 ft | 144 kts | 344° |
| 2026-05-04 17:45 | 40.49640 | 50.02915 | 1346 ft | 150 kts | 344° |
| 2026-05-04 17:45 | 40.50721 | 50.02568 | 1555 ft | 171 kts | 345° |
| 2026-05-04 17:46 | 40.51954 | 50.02171 | 1740 ft | 194 kts | 344° |
| 2026-05-04 17:46 | 40.53349 | 50.01720 | 1995 ft | 219 kts | 344° |
| 2026-05-04 17:46 | 40.54904 | 50.01220 | 2477 ft | 238 kts | 343° |
| 2026-05-04 17:46 | 40.56555 | 50.00694 | 3074 ft | 251 kts | 344° |
| 2026-05-04 17:47 | 40.58301 | 50.00139 | 3595 ft | 265 kts | 343° |
| 2026-05-04 17:47 | 40.60130 | 49.99563 | 4202 ft | 276 kts | 342° |
| 2026-05-04 17:47 | 40.62048 | 49.99039 | 4775 ft | 289 kts | 353° |
| 2026-05-04 17:47 | 40.64084 | 49.99065 | 5423 ft | 295 kts | 359° |
| 2026-05-04 17:48 | 40.66140 | 49.99156 | 6197 ft | 296 kts | 359° |
| 2026-05-04 17:48 | 40.68208 | 49.99250 | 6921 ft | 298 kts | 359° |
| 2026-05-04 17:48 | 40.70292 | 49.99345 | 7626 ft | 301 kts | 358° |
| 2026-05-04 17:48 | 40.72400 | 49.99442 | 8331 ft | 305 kts | 358° |
| 2026-05-04 17:49 | 40.74528 | 49.99535 | 9041 ft | 308 kts | 357° |
| 2026-05-04 17:49 | 40.76682 | 49.99624 | 9753 ft | 311 kts | 357° |
| 2026-05-04 17:49 | 40.77383 | 49.99653 | 9969 ft | 312 kts | 357° |
| 2026-05-04 17:51 | 40.91210 | 50.00231 | 12560 ft | 373 kts | 358° |